Historyczne dane pomiarowe

Dodano dane terminowe – wersja testowa.

Dane z okresu 1951-2019

Wersja bazy: 1.34 [2019-03-16, lista zmian], aktualizacja planowana na 2019-04-15

Dane meteo z obszaru Polski uzyskane na podstawie danych udostępnionych przez Instytut Meteorologii i Gospodarki Wodnej – Państwowy Instytut Badawczy.

 

Wybierz Datę:    

       

TemperaturaWilgotnośćWiatrCiśnienieOpadyŚniegCzas trwania zjawisk
 Stacja t tx tn tng RH VA  wxwx mslp ppp RRR   cm mm wxwxwxwxwxwxwx
1972-04-17 5.6 6.9 4.0- 93.8- 6.0 5.3---- 0.0------------
1972-04-18 6.1 7.4 5.2- 91.5- 7.3 3.7---- 3.0------------
1972-04-19 5.2 6.2 4.2- 90.3- 7.0 8.7---- 0.0------------
1972-04-20 3.7 5.9 1.0- 80.5- 1.0 9.7---- 0.0------------
1972-04-21 4.0 6.2 1.5- 91.8- 5.3 5.3---- 0.0------------
1972-04-22 4.8 6.7 1.2- 76.8- 3.7 6.0---- 0.0------------
1972-04-23 6.3 8.1 2.5- 87.0- 0.7 3.0---- 0.0------------
1972-04-24 3.6 6.6 0.5- 70.0- 4.7 12.7---- 0.0------------
1972-04-25 3.2 5.2 1.8- 53.5- 3.7 5.7---- 0.3------------
1972-04-26 6.3 8.5 3.2- 81.8- 7.7 5.0---- 0.3------------
1972-04-27 6.9 8.6 5.1- 74.5- 1.7 8.0---- 0.0------------
1972-04-28 5.6 7.6 3.0- 76.5- 3.0 5.0---- 1.2------------
1972-04-29 8.4 13.6 2.1- 65.8- 6.7 5.0---- 0.0------------
1972-04-30 13.7 20.6 7.4- 45.3- 6.3 3.7---- 0.0------------
1972-05-01 16.0 22.2 9.9- 42.3- 1.7 4.3---- 0.0------------
1972-05-02 16.7 22.7 12.4- 47.5- 5.3 3.7---- 0.0------------
1972-05-03 11.8 19.3 8.3- 62.3- 6.3 5.7---- 0.1------------
1972-05-04 9.2 14.2 7.5- 87.0- 8.0 5.0---- 0.0------------
1972-05-05 8.6 11.3 6.9- 91.5- 5.3 4.0---- 0.0------------
1972-05-06 7.7 9.8 6.2- 92.0- 4.7 6.0---- 0.0------------
1972-05-07 6.8 7.9 5.4- 89.5- 5.3 8.0---- 0.0------------
1972-05-08 6.5 9.0 4.7- 92.3- 0.7 5.0---- 0.0------------
1972-05-09 7.3 8.6 5.4- 87.0- 5.0 8.7---- 0.0------------
1972-05-10 7.7 11.2 6.0- 83.3- 5.3 5.3---- 3.7------------
1972-05-11 6.3 6.8 5.9- 91.8- 8.0 7.7---- 5.4------------
1972-05-12 6.4 7.3 5.9- 84.8- 8.0 9.0---- 11.3------------
1972-05-13 5.8 6.4 4.9- 92.3- 8.0 7.7---- 0.4------------
1972-05-14 6.2 7.7 5.1- 91.8- 8.0 5.0---- 0.0------------
1972-05-15 5.7 6.6 4.9- 91.3- 6.7 7.0---- 0.0------------
1972-05-16 6.1 6.8 5.1- 86.0- 8.0 10.7---- 18.0------------
327.5 ms

 

Źródłem pochodzenia danych jest Instytut Meteorologii i Gospodarki Wodnej – Państwowy Instytut Badawczy. Dane Instytutu Meteorologii i Gospodarki Wodnej – Państwowego Instytutu Badawczego zostały przetworzone.

Dane źródłowe można odnaleźć na stronie https://dane.imgw.pl